Time;durP1;ratioP1;P1;durP2;ratioP2;P2;SDS_P1;SDS_P2;PMS_P1;PMS_P2;Temp;Humidity;BMP_temperature;BMP_pressure;BME280_temperature;BME280_humidity;BME280_pressure;Samples;Min_cycle;Max_cycle;Signal;HPM_P1;HPM_P2
2022/11/16 00:00:59;;;;;;;97.10;40.80;;;;;;;4.29;100.00;98747.73;103812;1339;22526;-37
2022/11/16 00:03:24;;;;;;;137.50;61.40;;;;;;;4.24;100.00;98755.56;103198;1339;487034;-33
2022/11/16 00:05:56;;;;;;;133.60;57.00;;;;;;;4.27;100.00;98760.77;104120;1331;22509;-36
2022/11/16 00:08:22;;;;;;;82.30;37.90;;;;;;;4.24;100.00;98763.11;104109;1339;22209;-34
2022/11/16 00:10:48;;;;;;;104.90;45.60;;;;;;;4.20;100.00;98753.20;104086;1339;22119;-34
2022/11/16 00:13:13;;;;;;;76.40;36.30;;;;;;;4.22;100.00;98758.45;104071;1332;22174;-33
2022/11/16 00:15:39;;;;;;;64.90;30.70;;;;;;;4.25;100.00;98762.05;104070;1339;22110;-33
2022/11/16 00:18:04;;;;;;;110.80;42.30;;;;;;;4.26;100.00;98765.70;104089;1339;22177;-33
2022/11/16 00:20:30;;;;;;;96.50;38.80;;;;;;;4.24;100.00;98780.79;103979;1332;22168;-33
2022/11/16 00:22:56;;;;;;;77.00;36.90;;;;;;;4.23;100.00;98787.23;104018;1339;22217;-33
2022/11/16 00:25:21;;;;;;;70.10;32.00;;;;;;;4.23;100.00;98798.92;104061;1336;22602;-33
2022/11/16 00:27:47;;;;;;;103.20;41.00;;;;;;;4.24;100.00;98808.06;103922;1331;22513;-37
2022/11/16 00:30:13;;;;;;;59.80;28.80;;;;;;;4.24;100.00;98810.42;104095;1331;22157;-33
2022/11/16 00:32:38;;;;;;;84.00;37.10;;;;;;;4.23;100.00;98814.87;104031;1331;22513;-37
2022/11/16 00:35:05;;;;;;;83.40;40.90;;;;;;;4.24;100.00;98812.70;104051;1331;22537;-33
2022/11/16 00:37:30;;;;;;;83.20;36.70;;;;;;;4.25;100.00;98808.65;102844;1339;22565;-36
2022/11/16 00:39:56;;;;;;;112.30;52.00;;;;;;;4.25;100.00;98807.80;104097;1323;22194;-37
2022/11/16 00:42:22;;;;;;;104.60;45.40;;;;;;;4.23;100.00;98805.90;104111;1339;22079;-37
2022/11/16 00:44:47;;;;;;;122.10;51.70;;;;;;;4.20;100.00;98809.34;104080;1336;22101;-33
2022/11/16 00:47:13;;;;;;;115.60;50.90;;;;;;;4.16;100.00;98809.61;103524;1339;22514;-37
2022/11/16 00:49:39;;;;;;;134.70;55.40;;;;;;;4.11;100.00;98811.94;104100;1339;22201;-33
2022/11/16 00:52:04;;;;;;;118.50;48.80;;;;;;;4.08;100.00;98811.45;104078;1337;22056;-36
2022/11/16 00:54:31;;;;;;;92.80;44.20;;;;;;;4.02;100.00;98803.63;103832;1339;22515;-37
2022/11/16 00:56:56;;;;;;;92.80;41.30;;;;;;;3.94;100.00;98806.00;104074;1339;22041;-37
2022/11/16 00:59:22;;;;;;;79.10;35.40;;;;;;;3.85;100.00;98802.55;104037;1333;22159;-37
2022/11/16 01:01:48;;;;;;;101.70;43.90;;;;;;;3.83;100.00;98798.27;104042;1331;22030;-33
2022/11/16 01:04:13;;;;;;;92.20;38.50;;;;;;;3.75;100.00;98788.10;104007;1339;22505;-32
2022/11/16 01:06:39;;;;;;;76.20;34.10;;;;;;;3.67;100.00;98789.83;103734;1339;22176;-37
2022/11/16 01:09:04;;;;;;;89.30;35.60;;;;;;;3.68;100.00;98796.34;104145;1339;22045;-36
2022/11/16 01:14:02;;;;;;;88.50;39.90;;;;;;;3.55;100.00;98794.79;104118;1339;22239;-37
2022/11/16 01:16:27;;;;;;;88.70;36.70;;;;;;;3.50;100.00;98804.41;104076;1339;22176;-36
2022/11/16 01:18:53;;;;;;;118.10;44.80;;;;;;;3.47;100.00;98809.95;104119;1338;22232;-33
2022/11/16 01:21:19;;;;;;;78.00;30.50;;;;;;;3.46;100.00;98810.79;103846;1331;22090;-37
2022/11/16 01:23:45;;;;;;;86.00;35.60;;;;;;;3.29;100.00;98800.68;104063;1338;22221;-36
2022/11/16 01:26:11;;;;;;;59.70;29.60;;;;;;;3.20;100.00;98805.17;104091;1339;22014;-36
2022/11/16 01:28:37;;;;;;;77.70;33.70;;;;;;;3.07;100.00;98807.49;103624;1339;22530;-34
2022/11/16 01:31:03;;;;;;;82.20;32.70;;;;;;;3.03;100.00;98806.71;104134;1339;22103;-37
2022/11/16 01:33:29;;;;;;;76.10;38.70;;;;;;;2.92;100.00;98804.85;104044;1338;22538;-33
2022/11/16 01:35:55;;;;;;;25.90;11.40;;;;;;;2.91;100.00;98803.01;104004;1339;22051;-34
2022/11/16 01:38:20;;;;;;;82.40;34.40;;;;;;;2.78;100.00;98795.19;104128;1339;22323;-37
2022/11/16 01:40:48;;;;;;;64.20;31.30;;;;;;;2.73;100.00;98798.49;104131;1314;22195;-36
2022/11/16 01:43:17;;;;;;;42.20;21.30;;;;;;;2.59;100.00;98795.10;104079;1323;22098;-33
2022/11/16 01:45:43;;;;;;;64.20;27.60;;;;;;;2.51;100.00;98804.15;104109;1339;22005;-34
2022/11/16 01:48:10;;;;;;;54.00;23.00;;;;;;;2.51;100.00;98810.50;104018;1332;22455;-37
2022/11/16 01:50:36;;;;;;;60.60;26.00;;;;;;;2.51;100.00;98813.55;104105;1339;22438;-33
2022/11/16 01:53:03;;;;;;;42.10;21.60;;;;;;;2.47;100.00;98810.98;103721;1339;22182;-37
2022/11/16 01:55:30;;;;;;;56.50;29.40;;;;;;;2.42;100.00;98810.67;104113;1338;22159;-37
2022/11/16 01:57:56;;;;;;;55.60;25.50;;;;;;;2.39;100.00;98818.04;104100;1339;22509;-33
2022/11/16 02:00:21;;;;;;;50.80;25.20;;;;;;;2.41;100.00;98826.46;104006;1339;22214;-37
2022/11/16 02:02:47;;;;;;;53.60;26.60;;;;;;;2.41;100.00;98825.70;104269;1336;23047;-37
2022/11/16 02:05:16;;;;;;;67.70;29.90;;;;;;;2.46;100.00;98811.24;104273;1330;22146;-37
2022/11/16 02:10:24;;;;;;;59.20;25.70;;;;;;;2.37;100.00;98794.17;104019;1335;22505;-36
2022/11/16 02:12:55;;;;;;;60.50;24.90;;;;;;;2.37;100.00;98795.74;104295;1336;22050;-34
2022/11/16 02:15:25;;;;;;;66.20;27.80;;;;;;;2.38;100.00;98799.05;104299;1334;22332;-33
2022/11/16 02:17:55;;;;;;;53.30;25.10;;;;;;;2.37;100.00;98803.95;104245;1334;22508;-37
2022/11/16 02:20:24;;;;;;;65.80;27.30;;;;;;;2.41;100.00;98805.39;104239;1330;22234;-33
2022/11/16 02:22:56;;;;;;;77.30;32.20;;;;;;;2.45;100.00;98808.19;104246;1333;22026;-37
2022/11/16 02:25:54;;;;;;;74.10;31.40;;;;;;;2.46;100.00;98805.94;104256;1336;22370;-37
2022/11/16 02:28:29;;;;;;;34.00;17.80;;;;;;;2.48;100.00;98800.59;104295;1335;22102;-33
2022/11/16 02:30:55;;;;;;;75.80;30.30;;;;;;;2.45;100.00;98799.52;104303;1336;22181;-33
2022/11/16 02:33:22;;;;;;;66.10;31.30;;;;;;;2.45;100.00;98800.25;104245;1328;22277;-33
2022/11/16 02:35:50;;;;;;;32.50;16.20;;;;;;;2.44;100.00;98802.45;104140;1336;22048;-34
2022/11/16 02:38:18;;;;;;;59.40;25.20;;;;;;;2.44;100.00;98806.52;104279;1328;22163;-33
2022/11/16 02:40:46;;;;;;;65.20;28.70;;;;;;;2.47;100.00;98806.45;104303;1324;22498;-37
2022/11/16 02:43:17;;;;;;;69.80;29.10;;;;;;;2.47;100.00;98804.65;104319;1320;22383;-33
2022/11/16 02:45:44;;;;;;;52.40;20.00;;;;;;;2.48;100.00;98804.14;104213;1336;22326;-36
2022/11/16 02:48:14;;;;;;;61.20;24.50;;;;;;;2.52;100.00;98803.15;104280;1336;22455;-37
2022/11/16 02:50:40;;;;;;;78.90;30.50;;;;;;;2.51;100.00;98798.69;104302;1336;22570;-37
2022/11/16 02:53:05;;;;;;;;;;;;;;;2.55;100.00;98794.20;104248;1336;22131;-33
2022/11/16 02:55:32;;;;;;;59.50;26.00;;;;;;;2.57;100.00;98791.38;104234;1336;22519;-33
2022/11/16 02:57:59;;;;;;;47.70;19.50;;;;;;;2.55;100.00;98791.93;104199;1331;22041;-34
2022/11/16 03:00:30;;;;;;;40.30;20.40;;;;;;;2.60;100.00;98790.60;104299;1336;22430;-37
2022/11/16 03:03:00;;;;;;;71.10;29.40;;;;;;;2.62;100.00;98787.48;104255;1328;22357;-33
2022/11/16 03:05:31;;;;;;;61.70;25.80;;;;;;;2.62;100.00;98780.23;104302;1328;22390;-37
2022/11/16 03:08:04;;;;;;;62.80;25.20;;;;;;;2.63;100.00;98770.29;104296;1336;23217;-33
2022/11/16 03:12:59;;;;;;;60.50;26.00;;;;;;;2.67;100.00;98766.98;104249;1336;22517;-36
2022/11/16 03:15:25;;;;;;;55.50;25.70;;;;;;;2.71;100.00;98766.06;104307;1336;22041;-33
2022/11/16 03:17:50;;;;;;;38.00;18.40;;;;;;;2.70;100.00;98765.20;104272;1328;22529;-34
2022/11/16 03:20:19;;;;;;;54.00;24.10;;;;;;;2.75;100.00;98765.45;104045;1328;22342;-33
2022/11/16 03:22:46;;;;;;;51.80;22.90;;;;;;;2.74;100.00;98762.83;104279;1334;22517;-33
2022/11/16 03:25:14;;;;;;;64.00;30.10;;;;;;;2.74;100.00;98762.00;104263;1336;22191;-33
2022/11/16 03:27:44;;;;;;;38.50;20.80;;;;;;;2.74;100.00;98763.72;104288;1327;22825;-33
2022/11/16 03:30:12;;;;;;;58.30;25.40;;;;;;;2.72;100.00;98766.64;104296;1321;22135;-33
2022/11/16 03:32:41;;;;;;;45.40;21.20;;;;;;;2.71;100.00;98771.14;104109;1336;22383;-34
2022/11/16 03:35:13;;;;;;;55.80;25.30;;;;;;;2.71;100.00;98776.81;104267;1335;22260;-33
2022/11/16 03:37:38;;;;;;;47.60;21.60;;;;;;;2.69;100.00;98777.94;104342;1328;22164;-36
2022/11/16 03:40:05;;;;;;;21.40;9.80;;;;;;;2.71;100.00;98776.84;104290;1327;22191;-34
2022/11/16 03:42:30;;;;;;;53.50;22.50;;;;;;;2.72;100.00;98775.16;104275;1328;22505;-37
2022/11/16 03:44:56;;;;;;;58.70;22.10;;;;;;;2.72;100.00;98776.55;104295;1314;22175;-37
2022/11/16 03:47:22;;;;;;;50.10;18.00;;;;;;;2.76;100.00;98773.03;104263;1336;22520;-36
2022/11/16 03:49:48;;;;;;;42.70;16.80;;;;;;;2.80;100.00;98769.38;104246;1331;22149;-37
2022/11/16 03:52:14;;;;;;;77.30;27.90;;;;;;;2.80;100.00;98765.92;104213;1336;22221;-33
2022/11/16 03:54:40;;;;;;;52.50;22.00;;;;;;;2.84;100.00;98759.92;104271;1335;22249;-37
2022/11/16 03:57:06;;;;;;;46.40;18.10;;;;;;;2.84;100.00;98758.03;104277;1336;22185;-33
2022/11/16 03:59:32;;;;;;;38.80;14.70;;;;;;;2.84;100.00;98762.38;104188;1328;22014;-37
2022/11/16 04:01:57;;;;;;;42.40;16.20;;;;;;;2.85;100.00;98767.93;104306;1330;22040;-36
2022/11/16 04:24:22;;;;;;;36.00;16.00;;;;;;;3.02;100.00;98737.81;104284;1336;22498;-32
2022/11/16 04:29:20;;;;;;;69.30;23.70;;;;;;;3.10;100.00;98733.27;104278;1328;22152;-35
2022/11/16 04:39:29;;;;;;;33.70;13.70;;;;;;;3.16;100.00;98706.97;104245;1327;22520;-32
2022/11/16 04:47:05;;;;;;;63.00;21.30;;;;;;;3.28;100.00;98710.61;104129;1336;22339;-35
2022/11/16 04:47:10;;;;;;;108.70;39.20;;;;;;;3.32;100.00;98704.66;103548;1322;22509;-37
2022/11/16 04:49:35;;;;;;;39.30;19.80;;;;;;;3.32;100.00;98703.06;104206;1336;22054;-33
2022/11/16 04:52:01;;;;;;;56.20;20.10;;;;;;;3.35;100.00;98703.11;104185;1330;22063;-35
2022/11/16 04:54:27;;;;;;;43.30;18.80;;;;;;;3.34;100.00;98692.60;103848;1336;22560;-35
2022/11/16 04:56:52;;;;;;;42.80;15.30;;;;;;;3.33;100.00;98690.73;104022;1328;22189;-32
2022/11/16 04:59:18;;;;;;;46.80;17.00;;;;;;;3.37;100.00;98689.11;104276;1328;22526;-32
2022/11/16 05:04:13;;;;;;;42.30;16.40;;;;;;;3.42;100.00;98690.16;103845;1315;22495;-36
2022/11/16 05:06:38;;;;;;;42.10;18.20;;;;;;;3.42;100.00;98690.99;104294;1336;22264;-36
2022/11/16 05:09:04;;;;;;;42.10;14.80;;;;;;;3.46;100.00;98694.64;104275;1336;22584;-33
2022/11/16 05:11:30;;;;;;;37.30;15.00;;;;;;;3.53;100.00;98702.96;104253;1336;22032;-36
2022/11/16 05:13:55;;;;;;;36.40;14.40;;;;;;;3.52;100.00;98709.23;104282;1328;22189;-33
2022/11/16 05:16:21;;;;;;;38.90;15.10;;;;;;;3.55;100.00;98710.69;104136;1336;22424;-34
2022/11/16 05:20:59;;;;;;;49.40;16.40;;;;;;;3.57;100.00;98707.60;104245;1328;22410;-33
2022/11/16 05:21:32;;;;;;;46.90;16.40;;;;;;;3.54;100.00;98706.10;104104;1328;22564;-37
2022/11/16 05:26:27;;;;;;;43.90;19.70;;;;;;;3.55;100.00;98707.50;104277;1336;22688;-33
2022/11/16 05:28:52;;;;;;;46.90;17.70;;;;;;;3.58;100.00;98711.74;104172;1336;22031;-36
2022/11/16 05:31:18;;;;;;;53.90;19.10;;;;;;;3.62;100.00;98709.11;104271;1327;22332;-33
2022/11/16 05:33:43;;;;;;;43.60;15.00;;;;;;;3.62;100.00;98705.27;104286;1335;22073;-36
2022/11/16 05:36:09;;;;;;;46.40;16.10;;;;;;;3.63;100.00;98707.79;104318;1324;22151;-34
2022/11/16 05:38:35;;;;;;;57.60;19.00;;;;;;;3.69;100.00;98707.34;104247;1335;22508;-36
2022/11/16 05:41:01;;;;;;;41.90;17.10;;;;;;;3.69;100.00;98706.59;104133;1336;22907;-33
2022/11/16 05:43:28;;;;;;;45.70;18.80;;;;;;;3.70;100.00;98703.98;103976;1336;22595;-34
2022/11/16 05:45:54;;;;;;;57.50;17.70;;;;;;;3.70;100.00;98702.39;103803;1336;22114;-33
2022/11/16 05:48:20;;;;;;;50.90;17.00;;;;;;;3.72;100.00;98705.58;104296;1336;22208;-36
2022/11/16 05:50:46;;;;;;;70.60;20.10;;;;;;;3.72;100.00;98706.97;104255;1336;22188;-36
2022/11/16 05:53:11;;;;;;;42.90;14.50;;;;;;;3.75;100.00;98700.86;104276;1336;22051;-33
2022/11/16 05:55:37;;;;;;;60.50;20.50;;;;;;;3.76;100.00;98703.61;104301;1328;22395;-36
2022/11/16 05:58:02;;;;;;;36.70;12.90;;;;;;;3.77;100.00;98701.70;104287;1328;22595;-35
2022/11/16 06:00:28;;;;;;;61.90;17.30;;;;;;;3.76;100.00;98698.38;104282;1336;22155;-35
2022/11/16 06:02:54;;;;;;;31.80;11.70;;;;;;;3.78;100.00;98701.05;104275;1328;22204;-32
2022/11/16 06:05:19;;;;;;;86.60;20.50;;;;;;;3.83;100.00;98699.80;104263;1336;22345;-33
2022/11/16 06:07:45;;;;;;;68.30;22.70;;;;;;;3.82;100.00;98693.46;104140;1322;22331;-36
2022/11/16 06:10:11;;;;;;;72.00;19.80;;;;;;;3.83;100.00;98685.40;103926;1336;22504;-32
2022/11/16 06:12:36;;;;;;;50.10;13.40;;;;;;;3.85;100.00;98678.35;104157;1328;22223;-34
2022/11/16 06:15:02;;;;;;;64.60;19.80;;;;;;;3.85;100.00;98675.95;104239;1321;22155;-33
2022/11/16 06:17:28;;;;;;;47.90;13.40;;;;;;;3.85;100.00;98674.43;104211;1336;22526;-35
2022/11/16 06:19:54;;;;;;;85.10;24.10;;;;;;;3.86;100.00;98674.13;104133;1337;22535;-36
2022/11/16 06:22:19;;;;;;;68.30;20.40;;;;;;;3.87;100.00;98677.05;104255;1331;22529;-36
2022/11/16 06:24:45;;;;;;;81.70;22.20;;;;;;;3.86;100.00;98673.80;104206;1336;22511;-36
2022/11/16 06:27:11;;;;;;;75.10;21.10;;;;;;;3.89;100.00;98671.70;104220;1336;22522;-35
2022/11/16 06:29:36;;;;;;;53.30;15.90;;;;;;;3.90;100.00;98673.08;104167;1336;22522;-36
2022/11/16 06:32:02;;;;;;;52.50;16.60;;;;;;;3.90;100.00;98671.66;104224;1328;22789;-35
2022/11/16 06:34:28;;;;;;;54.60;18.90;;;;;;;3.95;100.00;98670.81;104248;1336;22519;-33
2022/11/16 06:36:53;;;;;;;62.00;18.80;;;;;;;4.01;100.00;98666.93;104064;1334;22123;-36
2022/11/16 06:39:19;;;;;;;61.30;19.40;;;;;;;4.03;100.00;98665.62;104261;1336;22208;-36
2022/11/16 06:41:44;;;;;;;66.50;17.00;;;;;;;4.04;100.00;98662.86;104238;1332;22184;-37
2022/11/16 06:44:10;;;;;;;52.00;16.90;;;;;;;4.06;100.00;98659.67;103616;1330;22720;-36
2022/11/16 06:46:36;;;;;;;75.50;21.90;;;;;;;4.08;100.00;98658.70;102960;1342;22598;-36
2022/11/16 06:49:02;;;;;;;73.40;25.20;;;;;;;4.09;100.00;98656.14;102806;1330;22510;-33
2022/11/16 06:51:28;;;;;;;81.70;27.20;;;;;;;4.10;100.00;98660.74;103392;1342;22232;-34
2022/11/16 06:53:53;;;;;;;67.80;16.80;;;;;;;4.11;100.00;98656.89;104193;1336;22648;-36
2022/11/16 06:56:19;;;;;;;83.40;24.40;;;;;;;4.11;100.00;98659.79;104246;1340;22323;-33
2022/11/16 06:58:45;;;;;;;61.70;17.60;;;;;;;4.13;100.00;98658.17;104062;1336;24356;-37
2022/11/16 07:01:11;;;;;;;86.70;25.30;;;;;;;4.12;100.00;98652.73;103573;1333;22193;-34
2022/11/16 07:03:37;;;;;;;97.10;21.40;;;;;;;4.13;100.00;98652.29;104246;1336;22214;-34
2022/11/16 07:06:07;;;;;;;69.90;18.50;;;;;;;4.14;100.00;98656.20;104136;1340;22057;-37
2022/11/16 07:08:32;;;;;;;63.40;19.40;;;;;;;4.15;100.00;98656.80;104241;1342;22212;-33
2022/11/16 07:11:01;;;;;;;68.10;22.10;;;;;;;4.18;100.00;98657.55;104136;1338;22191;-34
2022/11/16 07:13:26;;;;;;;69.20;21.20;;;;;;;4.14;100.00;98657.48;104214;1333;22191;-34
2022/11/16 07:15:52;;;;;;;61.00;20.00;;;;;;;4.17;100.00;98659.52;104260;1342;22515;-37
2022/11/16 07:18:17;;;;;;;84.30;26.20;;;;;;;4.16;100.00;98661.88;104271;1336;22285;-37
2022/11/16 07:20:43;;;;;;;77.20;24.90;;;;;;;4.24;100.00;98663.14;104183;1328;22234;-37
2022/11/16 07:23:08;;;;;;;101.40;29.80;;;;;;;4.20;100.00;98662.48;104243;1340;22514;-34
2022/11/16 07:25:34;;;;;;;99.10;21.60;;;;;;;4.19;100.00;98657.79;104287;1336;22217;-36
2022/11/16 07:28:00;;;;;;;96.30;23.30;;;;;;;4.20;100.00;98659.48;104252;1322;22551;-36
2022/11/16 07:30:25;;;;;;;79.70;29.60;;;;;;;4.20;100.00;98655.92;104246;1328;22423;-34
2022/11/16 07:32:56;;;;;;;107.50;25.30;;;;;;;4.20;100.00;98648.67;104216;1334;22724;-34
2022/11/16 07:35:22;;;;;;;97.70;23.50;;;;;;;4.18;100.00;98646.55;104257;1328;22177;-34
2022/11/16 07:37:48;;;;;;;72.50;22.20;;;;;;;4.15;100.00;98649.03;104144;1336;22171;-33
2022/11/16 07:40:13;;;;;;;62.30;18.40;;;;;;;4.15;100.00;98655.80;103966;1336;22565;-37
2022/11/16 07:42:40;;;;;;;73.80;20.70;;;;;;;4.18;100.00;98665.89;104029;1334;22269;-34
2022/11/16 07:45:07;;;;;;;81.40;22.10;;;;;;;4.21;100.00;98664.45;104190;1340;22147;-33
2022/11/16 07:47:35;;;;;;;92.70;24.90;;;;;;;4.27;100.00;98667.25;104164;1340;22610;-36
2022/11/16 07:50:04;;;;;;;63.40;18.80;;;;;;;4.27;100.00;98661.02;104230;1342;22078;-34
2022/11/16 07:52:30;;;;;;;112.90;29.20;;;;;;;4.20;100.00;98658.04;104246;1336;22595;-34
2022/11/16 07:54:56;;;;;;;55.30;19.00;;;;;;;4.17;100.00;98657.13;104229;1328;22518;-36
2022/11/16 07:57:22;;;;;;;80.70;23.10;;;;;;;4.19;100.00;98666.00;102660;1342;22583;-36
2022/11/16 07:59:47;;;;;;;89.60;26.40;;;;;;;4.23;100.00;98664.58;104093;1336;22577;-34
2022/11/16 08:02:13;;;;;;;59.80;20.10;;;;;;;4.26;100.00;98663.26;104239;1330;22100;-37
2022/11/16 08:04:38;;;;;;;73.80;22.40;;;;;;;4.23;100.00;98660.35;103891;1320;466953;-34
2022/11/16 08:07:05;;;;;;;55.80;20.30;;;;;;;4.28;100.00;98661.58;104223;1338;22065;-34
2022/11/16 08:09:30;;;;;;;112.90;31.00;;;;;;;4.29;100.00;98656.99;104261;1336;22200;-36
2022/11/16 08:11:56;;;;;;;84.00;22.40;;;;;;;4.27;100.00;98654.08;104240;1328;22498;-34
2022/11/16 08:14:21;;;;;;;65.80;20.10;;;;;;;4.25;100.00;98653.39;103645;1336;22111;-34
2022/11/16 08:16:47;;;;;;;99.50;24.80;;;;;;;4.30;100.00;98656.39;104207;1338;22214;-34
2022/11/16 08:19:13;;;;;;;93.30;25.60;;;;;;;4.28;100.00;98653.85;104048;1336;22286;-34
2022/11/16 08:21:38;;;;;;;85.60;24.60;;;;;;;4.29;100.00;98649.66;104181;1328;22540;-36
2022/11/16 08:24:04;;;;;;;84.60;25.70;;;;;;;4.29;100.00;98645.38;104211;1336;22527;-34
2022/11/16 08:26:30;;;;;;;41.30;10.50;;;;;;;4.26;100.00;98647.71;104190;1342;22031;-34
2022/11/16 08:28:56;;;;;;;72.80;21.20;;;;;;;4.25;100.00;98654.73;104200;1327;22199;-34
2022/11/16 08:31:24;;;;;;;59.70;18.20;;;;;;;4.29;100.00;98668.71;104240;1334;22203;-34
2022/11/16 08:33:50;;;;;;;61.50;16.30;;;;;;;4.33;100.00;98673.61;104263;1334;22202;-34
2022/11/16 08:36:16;;;;;;;66.90;15.70;;;;;;;4.32;100.00;98674.81;104238;1328;22056;-33
2022/11/16 08:38:43;;;;;;;55.40;14.30;;;;;;;4.38;100.00;98680.51;104220;1337;22512;-37
2022/11/16 08:41:09;;;;;;;43.00;13.30;;;;;;;4.30;100.00;98680.27;104210;1328;22514;-34
2022/11/16 08:43:35;;;;;;;56.40;17.30;;;;;;;4.34;100.00;98681.65;103962;1334;22516;-34
2022/11/16 08:46:01;;;;;;;51.80;13.10;;;;;;;4.36;100.00;98685.48;104078;1336;22704;-35
2022/11/16 08:48:26;;;;;;;52.60;16.50;;;;;;;4.33;100.00;98678.23;103879;1336;22556;-33
2022/11/16 08:50:53;;;;;;;62.40;16.80;;;;;;;4.31;100.00;98681.64;104255;1327;22325;-37
2022/11/16 08:53:19;;;;;;;71.90;20.10;;;;;;;4.32;100.00;98682.16;104258;1336;22213;-34
2022/11/16 08:55:44;;;;;;;55.10;15.90;;;;;;;4.34;100.00;98679.00;104172;1314;22575;-34
2022/11/16 08:58:10;;;;;;;75.10;21.90;;;;;;;4.26;100.00;98681.80;104217;1330;22582;-34
2022/11/16 09:00:36;;;;;;;51.90;17.10;;;;;;;4.30;100.00;98690.05;104173;1327;22751;-37
2022/11/16 09:03:02;;;;;;;59.10;19.00;;;;;;;4.26;100.00;98687.96;104222;1336;22444;-37
2022/11/16 09:05:28;;;;;;;95.40;23.60;;;;;;;4.39;100.00;98684.80;104264;1334;22263;-34
2022/11/16 09:07:53;;;;;;;68.20;16.60;;;;;;;4.34;100.00;98681.86;104212;1334;24372;-34
2022/11/16 09:10:21;;;;;;;63.30;17.60;;;;;;;4.30;100.00;98684.27;104136;1337;22177;-34
2022/11/16 09:12:48;;;;;;;38.40;13.00;;;;;;;4.28;100.00;98685.55;104197;1336;22092;-35
2022/11/16 09:15:14;;;;;;;75.70;22.90;;;;;;;4.22;100.00;98686.13;103839;1336;24449;-36
2022/11/16 09:17:39;;;;;;;58.00;20.90;;;;;;;4.21;100.00;98679.05;103231;1328;22174;-33
2022/11/16 09:20:06;;;;;;;56.20;23.00;;;;;;;4.15;100.00;98683.05;104256;1336;22523;-34
2022/11/16 09:22:31;;;;;;;40.30;17.40;;;;;;;4.10;100.00;98678.71;104245;1336;22529;-36
2022/11/16 09:24:58;;;;;;;42.20;16.20;;;;;;;3.98;100.00;98678.06;104243;1336;22349;-36
2022/11/16 09:27:23;;;;;;;42.00;16.00;;;;;;;3.91;100.00;98680.42;104244;1336;22550;-36
2022/11/16 09:29:49;;;;;;;62.00;21.20;;;;;;;3.87;100.00;98685.31;104274;1336;22200;-34
2022/11/16 09:32:15;;;;;;;22.30;8.70;;;;;;;3.85;100.00;98684.49;104206;1328;22073;-36
2022/11/16 09:34:40;;;;;;;33.60;10.00;;;;;;;3.83;100.00;98687.75;104210;1336;22505;-33
2022/11/16 09:37:06;;;;;;;42.10;12.40;;;;;;;3.76;100.00;98689.70;104188;1333;22520;-33
2022/11/16 09:39:33;;;;;;;43.80;15.40;;;;;;;3.74;100.00;98692.76;103673;1336;22353;-36
2022/11/16 09:42:05;;;;;;;37.30;13.00;;;;;;;3.73;100.00;98692.20;104213;1335;22762;-33
2022/11/16 09:44:33;;;;;;;31.40;11.70;;;;;;;3.74;100.00;98693.36;104215;1333;22498;-33
2022/11/16 09:46:59;;;;;;;47.40;17.90;;;;;;;3.75;100.00;98693.09;104048;1337;22435;-33
2022/11/16 09:49:29;;;;;;;38.40;14.30;;;;;;;3.68;100.00;98692.05;104263;1320;22030;-36
2022/11/16 09:51:58;;;;;;;35.90;13.40;;;;;;;3.69;100.00;98691.05;104243;1330;22519;-33
2022/11/16 09:54:26;;;;;;;28.80;11.40;;;;;;;3.69;100.00;98693.01;104245;1328;22609;-36
2022/11/16 09:56:53;;;;;;;41.30;15.80;;;;;;;3.75;100.00;98689.10;104272;1336;22436;-33
2022/11/16 09:59:22;;;;;;;34.30;12.40;;;;;;;3.77;100.00;98681.99;104158;1333;22754;-38
2022/11/16 10:01:55;;;;;;;37.30;13.80;;;;;;;3.74;100.00;98672.95;104121;1336;22523;-38
2022/11/16 10:04:35;;;;;;;19.40;9.00;;;;;;;3.75;100.00;98663.45;104282;1336;22501;-33
2022/11/16 10:07:06;;;;;;;25.00;9.20;;;;;;;3.68;100.00;98656.13;104252;1334;22529;-33
2022/11/16 10:09:31;;;;;;;28.60;10.90;;;;;;;3.67;100.00;98652.52;104201;1336;23098;-33
2022/11/16 10:12:01;;;;;;;35.70;13.40;;;;;;;3.70;100.00;98649.45;104244;1335;22428;-36
2022/11/16 10:14:34;;;;;;;25.30;11.90;;;;;;;3.70;100.00;98649.98;104248;1336;22200;-33
2022/11/16 10:17:07;;;;;;;24.00;14.90;;;;;;;3.71;100.00;98651.30;104215;1336;22401;-36
2022/11/16 10:19:39;;;;;;;32.30;15.70;;;;;;;3.73;100.00;98646.85;104216;1328;22508;-33
2022/11/16 10:22:12;;;;;;;46.60;19.70;;;;;;;3.81;100.00;98639.84;104144;1334;22185;-36
2022/11/16 10:25:02;;;;;;;32.00;14.20;;;;;;;3.78;100.00;98633.21;104258;1329;22483;-33
2022/11/16 10:27:45;;;;;;;33.90;14.20;;;;;;;3.79;100.00;98633.48;104194;1328;22616;-33
2022/11/16 10:30:13;;;;;;;54.10;19.70;;;;;;;3.84;100.00;98628.52;104231;1322;22169;-36
2022/11/16 10:32:43;;;;;;;38.20;17.60;;;;;;;3.81;100.00;98623.88;104239;1328;22536;-36
2022/11/16 10:35:23;;;;;;;32.30;14.90;;;;;;;3.79;100.00;98618.27;104094;1336;22588;-36
2022/11/16 10:37:49;;;;;;;27.70;12.50;;;;;;;3.74;100.00;98609.93;104167;1336;22492;-36
2022/11/16 10:40:19;;;;;;;41.90;15.90;;;;;;;3.78;100.00;98608.62;104094;1334;22543;-33
2022/11/16 10:42:47;;;;;;;19.20;12.20;;;;;;;3.77;100.00;98600.98;103748;1330;22552;-36
2022/11/16 10:45:19;;;;;;;26.90;15.40;;;;;;;3.70;100.00;98602.41;104273;1336;22264;-33
2022/11/16 10:47:50;;;;;;;23.60;12.40;;;;;;;3.75;100.00;98605.23;104206;1335;22206;-33
2022/11/16 10:50:25;;;;;;;31.30;14.60;;;;;;;3.78;100.00;98601.02;104274;1328;22517;-34
2022/11/16 10:52:51;;;;;;;40.70;16.90;;;;;;;3.78;100.00;98594.45;104231;1335;23188;-37
2022/11/16 10:55:17;;;;;;;33.30;14.30;;;;;;;3.79;100.00;98594.34;104051;1335;22121;-37
2022/11/16 10:57:50;;;;;;;33.30;14.20;;;;;;;3.81;100.00;98590.61;104244;1328;22514;-36
2022/11/16 11:00:21;;;;;;;26.40;12.90;;;;;;;3.77;100.00;98584.29;103939;1328;23080;-33
2022/11/16 11:02:47;;;;;;;29.50;11.70;;;;;;;3.74;100.00;98581.58;104260;1328;22216;-37
2022/11/16 11:05:16;;;;;;;23.00;13.00;;;;;;;3.73;100.00;98578.77;104283;1336;22390;-34
2022/11/16 11:07:44;;;;;;;29.50;14.80;;;;;;;3.81;100.00;98576.80;104239;1336;22549;-33
2022/11/16 11:10:17;;;;;;;36.00;16.70;;;;;;;3.76;100.00;98571.52;104279;1336;22562;-36
2022/11/16 11:12:43;;;;;;;30.00;16.10;;;;;;;3.73;100.00;98575.88;104232;1336;22072;-33
2022/11/16 11:15:10;;;;;;;27.10;11.90;;;;;;;3.74;100.00;98579.11;104180;1336;22146;-34
2022/11/16 11:17:37;;;;;;;11.00;7.50;;;;;;;3.79;100.00;98583.15;104230;1327;22346;-33
2022/11/16 11:20:04;;;;;;;43.30;11.30;;;;;;;3.82;100.00;98578.12;104288;1328;22084;-33
2022/11/16 11:22:31;;;;;;;32.50;13.80;;;;;;;3.77;100.00;98571.17;104297;1335;22299;-37
2022/11/16 11:24:58;;;;;;;28.60;12.00;;;;;;;3.79;100.00;98571.30;104272;1336;22195;-36
2022/11/16 11:27:27;;;;;;;45.80;22.20;;;;;;;3.79;100.00;98570.47;103856;1333;22418;-37
2022/11/16 11:29:54;;;;;;;36.70;22.90;;;;;;;3.81;100.00;98569.19;104171;1326;22183;-33
2022/11/16 11:32:20;;;;;;;45.70;23.80;;;;;;;3.85;100.00;98573.16;103949;1336;22079;-34
2022/11/16 11:34:48;;;;;;;26.40;12.60;;;;;;;3.95;100.00;98568.43;104162;1328;22215;-36
2022/11/16 11:37:15;;;;;;;29.90;13.20;;;;;;;3.95;100.00;98570.34;103961;1336;22362;-33
2022/11/16 11:39:41;;;;;;;208.80;62.00;;;;;;;3.90;100.00;98570.21;104186;1328;22071;-33
2022/11/16 11:42:12;;;;;;;47.40;15.80;;;;;;;4.00;100.00;98560.09;104148;1327;22512;-33
2022/11/16 11:44:48;;;;;;;55.80;17.00;;;;;;;3.98;100.00;98551.94;104193;1336;22512;-33
2022/11/16 11:47:20;;;;;;;264.00;68.10;;;;;;;3.97;100.00;98551.41;104256;1336;22040;-33
2022/11/16 11:49:51;;;;;;;508.40;182.40;;;;;;;3.99;100.00;98553.12;104088;1336;23115;-33
2022/11/16 11:52:21;;;;;;;205.10;53.80;;;;;;;4.02;100.00;98539.61;104222;1328;22044;-37
2022/11/16 11:54:47;;;;;;;375.30;95.10;;;;;;;3.97;100.00;98541.08;103660;1334;24646;-36